Santos, Brazil
Current Conditions -  °F | °C
As of 2:00 PM on Sunday 21 Dec 2014 (Local Time) from SBSP Reporting Station
Scattered Clouds Scattered Clouds  
Wind Chill: 86°   Ceiling: Unl
Heat Index: 87°   Visibility: 6mi
Dew Point: 63°   Wind: 18mph
Humidity: 45%   Direction: 330°NNW
Pressure: 29.91"   Gusts: 35mph
Location:  23.95°S, 46.33°W
Report Text: SBSP 211600Z 33016G30KT 9999 SCT045 30/17 Q1013
Loading
Personal Weather Stations






























Interactive Weather Map New forecast layout! Learn more

10-Day Weather Forecast

Advertisements
Track Severe Weather on mobile